Time;durP1;ratioP1;P1;durP2;ratioP2;P2;SDS_P1;SDS_P2;PMS_P1;PMS_P2;Temp;Humidity;BMP_temperature;BMP_pressure;BME280_temperature;BME280_humidity;BME280_pressure;Samples;Min_cycle;Max_cycle;Signal;HPM_P1;HPM_P2
2023/07/10 00:02:10;;;;;;;29.80;17.02;;;18.60;99.90;;;;;;6279752;22;20085;-85
2023/07/10 00:04:45;;;;;;;30.02;18.60;;;18.60;99.90;;;;;;6278990;22;20026;-88
2023/07/10 00:07:10;;;;;;;29.20;18.17;;;18.50;99.90;;;;;;6279763;22;20011;-90
2023/07/10 00:09:36;;;;;;;31.90;19.77;;;18.80;99.90;;;;;;6307095;22;20331;-87
2023/07/10 00:12:03;;;;;;;28.20;19.15;;;18.90;99.90;;;;;;6306211;22;20026;-88
2023/07/10 00:14:33;;;;;;;29.55;19.77;;;18.40;99.90;;;;;;6278900;22;20093;-88
2023/07/10 00:17:15;;;;;;;33.55;20.92;;;18.40;99.90;;;;;;6279436;22;20027;-88
2023/07/10 00:19:41;;;;;;;34.05;21.52;;;18.40;99.90;;;;;;6305978;22;20343;-87
2023/07/10 00:22:07;;;;;;;34.20;21.20;;;18.30;99.90;;;;;;6307237;22;20015;-87
2023/07/10 00:24:32;;;;;;;36.58;20.83;;;18.40;99.90;;;;;;6279775;22;20064;-88
2023/07/10 00:26:58;;;;;;;38.40;22.60;;;18.40;99.90;;;;;;6277918;22;20098;-87
2023/07/10 00:29:31;;;;;;;43.72;23.02;;;18.40;99.90;;;;;;6280098;22;20019;-87
2023/07/10 00:31:58;;;;;;;35.53;21.30;;;18.40;99.90;;;;;;6278579;22;20090;-87
2023/07/10 00:34:25;;;;;;;37.75;22.27;;;18.30;99.90;;;;;;6307034;22;20022;-87
2023/07/10 00:36:51;;;;;;;41.28;22.10;;;18.40;99.90;;;;;;6280019;22;20015;-87
2023/07/10 00:39:22;;;;;;;40.15;22.33;;;18.30;99.90;;;;;;6306819;22;20101;-88
2023/07/10 00:42:23;;;;;;;44.35;22.83;;;18.30;99.90;;;;;;6280167;22;20102;-88
2023/07/10 00:44:55;;;;;;;40.33;23.23;;;18.30;99.90;;;;;;6257204;22;20072;-88
2023/07/10 00:47:30;;;;;;;44.60;23.92;;;18.30;99.90;;;;;;6278688;22;20015;-88
2023/07/10 00:50:00;;;;;;;42.45;23.23;;;18.30;99.90;;;;;;6279612;22;20022;-88
2023/07/10 00:52:49;;;;;;;43.72;23.48;;;18.30;99.90;;;;;;6279644;22;20053;-87
2023/07/10 00:55:48;;;;;;;41.97;22.35;;;18.30;99.90;;;;;;6278387;22;20054;-87
2023/07/10 00:58:49;;;;;;;35.53;21.25;;;18.10;99.90;;;;;;6279496;22;20011;-87
2023/07/10 01:01:39;;;;;;;40.53;20.65;;;18.30;99.90;;;;;;6278729;22;20019;-87
2023/07/10 01:04:20;;;;;;;43.28;22.35;;;18.30;99.90;;;;;;6305148;22;20011;-87
2023/07/10 01:06:46;;;;;;;42.83;21.35;;;18.30;99.90;;;;;;6279245;22;20344;-87
2023/07/10 01:09:11;;;;;;;40.67;21.85;;;18.30;99.90;;;;;;6305361;22;20018;-87
2023/07/10 01:11:37;;;;;;;42.85;21.33;;;18.30;99.90;;;;;;6273516;22;20020;-87
2023/07/10 01:14:44;;;;;;;35.63;20.98;;;18.40;99.90;;;;;;6275344;22;20122;-87
2023/07/10 01:17:10;;;;;;;35.85;20.17;;;18.30;99.90;;;;;;6273107;22;20055;-87
2023/07/10 01:19:49;;;;;;;38.97;20.60;;;18.40;99.90;;;;;;6274457;22;20459;-87
2023/07/10 01:22:15;;;;;;;36.28;19.65;;;18.30;99.90;;;;;;6273700;22;20007;-87
2023/07/10 01:24:52;;;;;;;37.00;20.98;;;18.30;99.90;;;;;;6274151;22;20462;-87
2023/07/10 01:27:21;;;;;;;36.78;20.38;;;18.20;99.90;;;;;;6273794;22;20094;-86
2023/07/10 01:30:14;;;;;;;37.67;21.08;;;18.20;99.90;;;;;;6275077;22;20015;-87
2023/07/10 01:32:56;;;;;;;34.72;19.75;;;18.20;99.90;;;;;;6273171;22;20041;-86
2023/07/10 01:35:25;;;;;;;31.35;18.08;;;18.20;99.90;;;;;;6272581;22;20020;-87
2023/07/10 01:38:14;;;;;;;31.13;17.88;;;18.20;99.90;;;;;;6273478;22;20015;-87
2023/07/10 01:40:58;;;;;;;30.98;18.73;;;18.20;99.90;;;;;;6156406;23;20021;-87
2023/07/10 01:43:33;;;;;;;33.83;20.05;;;18.20;99.90;;;;;;6275235;22;20011;-87
2023/07/10 01:45:58;;;;;;;34.03;18.63;;;18.10;99.90;;;;;;6275212;22;20118;-86
2023/07/10 01:48:27;;;;;;;33.92;20.38;;;18.10;99.90;;;;;;6273820;22;20043;-87
2023/07/10 01:50:53;;;;;;;32.03;18.48;;;18.00;99.90;;;;;;6274565;22;20146;-87
2023/07/10 01:53:33;;;;;;;35.47;19.75;;;18.10;99.90;;;;;;6274015;22;20394;-87
2023/07/10 01:55:59;;;;;;;30.60;18.33;;;18.10;99.90;;;;;;6275183;22;20451;-87
2023/07/10 01:58:40;;;;;;;28.85;18.52;;;18.10;99.90;;;;;;6274886;22;20047;-87
2023/07/10 02:01:20;;;;;;;34.80;18.95;;;17.90;99.90;;;;;;6273151;22;20131;-87
2023/07/10 02:03:46;;;;;;;36.90;19.40;;;18.00;99.90;;;;;;6273252;22;20098;-86
2023/07/10 02:06:12;;;;;;;31.15;19.75;;;18.00;99.90;;;;;;6273186;22;20455;-86
2023/07/10 02:08:40;;;;;;;28.48;18.08;;;18.10;99.90;;;;;;6275676;22;20370;-86
2023/07/10 02:11:06;;;;;;;31.27;17.77;;;18.10;99.90;;;;;;6271857;22;20411;-87
2023/07/10 02:13:32;;;;;;;34.58;18.73;;;18.10;99.90;;;;;;6273703;22;20424;-87
2023/07/10 02:16:03;;;;;;;34.10;19.95;;;18.00;99.90;;;;;;6273467;22;20016;-87
2023/07/10 02:18:43;;;;;;;29.23;18.48;;;18.10;99.90;;;;;;6274371;22;20149;-87
2023/07/10 02:21:24;;;;;;;32.42;19.33;;;18.10;99.90;;;;;;6273110;22;20393;-86
2023/07/10 02:23:56;;;;;;;31.45;18.80;;;18.10;99.90;;;;;;6273169;22;20015;-87
2023/07/10 02:26:34;;;;;;;33.47;20.13;;;18.20;99.90;;;;;;6272691;22;20118;-87
2023/07/10 02:29:00;;;;;;;31.83;20.45;;;18.10;99.90;;;;;;6272918;22;20336;-87
2023/07/10 02:31:27;;;;;;;30.25;21.10;;;18.20;99.90;;;;;;6287341;22;20002;-87
2023/07/10 02:34:08;;;;;;;34.90;21.00;;;18.10;99.90;;;;;;6291526;22;20019;-86
2023/07/10 02:36:34;;;;;;;34.33;21.38;;;18.20;99.90;;;;;;6276896;22;20391;-87
2023/07/10 02:39:00;;;;;;;35.97;22.00;;;18.20;99.90;;;;;;6273661;22;20012;-86
2023/07/10 02:41:25;;;;;;;38.38;22.00;;;18.20;99.90;;;;;;6275364;22;20027;-87
2023/07/10 02:44:09;;;;;;;38.45;21.35;;;18.10;99.90;;;;;;6274995;22;20030;-87
2023/07/10 02:46:35;;;;;;;37.35;21.67;;;18.20;99.90;;;;;;6272973;22;20019;-87
2023/07/10 02:49:01;;;;;;;39.83;22.60;;;18.10;99.90;;;;;;6273331;22;20019;-87
2023/07/10 02:54:55;;;;;;;38.83;22.75;;;18.20;99.90;;;;;;6274926;22;20086;-87
2023/07/10 02:57:27;;;;;;;38.63;22.38;;;18.20;99.90;;;;;;6269989;22;20516;-87
2023/07/10 02:59:52;;;;;;;40.65;23.67;;;18.10;99.90;;;;;;6274763;22;20022;-86
2023/07/10 03:02:42;;;;;;;39.42;23.20;;;18.20;99.90;;;;;;6278284;22;20320;-86
2023/07/10 03:05:08;;;;;;;37.92;22.95;;;18.20;99.90;;;;;;6275401;22;20019;-87
2023/07/10 03:07:34;;;;;;;44.70;25.23;;;18.20;99.90;;;;;;6274758;22;20016;-87
2023/07/10 03:10:00;;;;;;;41.38;24.02;;;18.20;99.90;;;;;;6277779;22;20012;-87
2023/07/10 03:12:33;;;;;;;39.85;23.83;;;18.20;99.90;;;;;;6280329;22;20024;-87
2023/07/10 03:15:52;;;;;;;40.33;23.40;;;18.20;99.90;;;;;;6306804;22;20022;-87
2023/07/10 03:18:30;;;;;;;42.60;25.02;;;18.20;99.90;;;;;;6259421;22;20011;-86
2023/07/10 03:21:20;;;;;;;40.63;23.98;;;18.20;99.90;;;;;;6301055;22;20037;-87
2023/07/10 03:23:49;;;;;;;42.60;24.63;;;18.50;99.90;;;;;;6280546;22;20094;-88
2023/07/10 03:26:33;;;;;;;44.13;25.65;;;18.20;99.90;;;;;;6280214;22;20084;-87
2023/07/10 03:29:51;;;;;;;41.33;24.48;;;18.20;99.90;;;;;;6306900;22;20016;-87
2023/07/10 03:32:17;;;;;;;44.53;25.98;;;17.90;99.90;;;;;;6242154;22;20023;-87
2023/07/10 03:34:52;;;;;;;46.22;25.90;;;18.20;99.90;;;;;;6280497;22;20020;-87
2023/07/10 03:37:21;;;;;;;44.85;25.58;;;18.20;99.90;;;;;;6307750;22;20035;-87
2023/07/10 03:39:46;;;;;;;47.33;26.55;;;18.20;99.90;;;;;;6280435;22;20076;-88
2023/07/10 03:42:12;;;;;;;47.45;26.55;;;18.20;99.90;;;;;;6279034;22;20019;-87
2023/07/10 03:44:43;;;;;;;47.63;27.23;;;18.50;99.90;;;;;;6307953;22;20095;-87
2023/07/10 03:47:09;;;;;;;49.80;26.90;;;18.20;99.90;;;;;;6307285;22;20019;-87
2023/07/10 03:49:52;;;;;;;47.55;27.42;;;18.20;99.90;;;;;;6279220;22;20023;-87
2023/07/10 03:55:06;;;;;;;43.50;26.30;;;18.20;99.90;;;;;;6091572;23;20033;-87
2023/07/10 03:57:47;;;;;;;46.85;26.25;;;18.20;99.90;;;;;;6192210;23;20316;-87
2023/07/10 04:00:18;;;;;;;48.97;27.52;;;18.10;99.90;;;;;;6092329;23;20446;-86
2023/07/10 04:02:47;;;;;;;44.35;26.42;;;18.20;99.90;;;;;;6091521;23;20045;-86
2023/07/10 04:05:13;;;;;;;45.42;26.90;;;18.10;99.90;;;;;;6090518;23;20025;-86
2023/07/10 04:07:38;;;;;;;41.33;26.98;;;18.20;99.90;;;;;;6091477;23;20018;-86
2023/07/10 04:10:16;;;;;;;38.95;25.73;;;18.20;99.90;;;;;;6091148;23;20026;-87
2023/07/10 04:12:42;;;;;;;40.38;25.98;;;18.10;99.90;;;;;;6092558;23;20054;-87
2023/07/10 04:15:28;;;;;;;41.03;26.42;;;18.10;99.90;;;;;;6192904;23;20071;-87
2023/07/10 04:17:54;;;;;;;42.33;26.73;;;18.20;99.90;;;;;;6191685;23;20023;-87
2023/07/10 04:20:20;;;;;;;37.60;25.15;;;18.20;99.90;;;;;;6193330;23;20029;-87
2023/07/10 04:22:48;;;;;;;39.20;25.33;;;18.20;99.90;;;;;;6193221;23;20061;-87
2023/07/10 04:25:23;;;;;;;43.30;25.85;;;18.10;99.90;;;;;;6091370;23;20044;-86
2023/07/10 04:28:10;;;;;;;40.85;25.20;;;18.10;99.90;;;;;;6092143;23;20018;-87
2023/07/10 04:30:45;;;;;;;42.17;25.38;;;18.10;99.90;;;;;;6192916;23;20350;-86
2023/07/10 04:33:11;;;;;;;41.20;25.10;;;18.20;99.90;;;;;;6191647;23;20435;-86
2023/07/10 04:35:54;;;;;;;42.78;25.15;;;18.20;99.90;;;;;;6193164;23;20447;-87
2023/07/10 04:38:34;;;;;;;33.53;23.58;;;18.40;99.90;;;;;;6091727;23;20034;-87
2023/07/10 04:41:36;;;;;;;37.15;23.80;;;18.10;99.90;;;;;;6091644;23;20450;-86
2023/07/10 04:44:07;;;;;;;33.38;23.33;;;18.20;99.90;;;;;;6192827;23;20093;-87
2023/07/10 04:46:33;;;;;;;35.67;22.85;;;18.10;99.90;;;;;;6091553;23;20086;-87
2023/07/10 04:48:59;;;;;;;40.90;25.48;;;18.10;99.90;;;;;;6192459;23;20099;-87
2023/07/10 04:51:24;;;;;;;33.97;24.17;;;18.10;99.90;;;;;;6192730;23;20049;-87
2023/07/10 04:54:02;;;;;;;37.90;25.15;;;18.20;99.90;;;;;;6090843;23;20010;-87
2023/07/10 04:56:28;;;;;;;38.17;23.65;;;18.20;99.90;;;;;;6091921;23;20029;-87
2023/07/10 04:58:56;;;;;;;37.40;23.50;;;18.30;99.90;;;;;;6192523;23;20121;-86
2023/07/10 05:01:28;;;;;;;34.00;22.48;;;18.20;99.90;;;;;;6091490;23;20083;-87
2023/07/10 05:04:03;;;;;;;36.78;23.45;;;18.20;99.90;;;;;;6092038;23;20018;-86
2023/07/10 05:06:29;;;;;;;32.83;22.60;;;18.20;99.90;;;;;;6091798;23;20038;-86
2023/07/10 05:08:56;;;;;;;33.22;21.92;;;18.20;99.90;;;;;;6091841;23;20443;-86
2023/07/10 05:11:25;;;;;;;31.70;21.52;;;18.20;99.90;;;;;;6092301;23;20085;-87
2023/07/10 05:13:50;;;;;;;32.95;22.08;;;18.20;99.90;;;;;;6191204;23;20402;-87
2023/07/10 05:16:16;;;;;;;32.08;22.10;;;18.20;99.90;;;;;;6092194;23;20022;-86
2023/07/10 05:18:42;;;;;;;31.73;21.50;;;18.30;99.90;;;;;;6192076;23;20518;-86
2023/07/10 05:21:20;;;;;;;33.55;22.45;;;18.30;99.90;;;;;;6190876;23;20019;-86
2023/07/10 05:23:46;;;;;;;33.78;21.88;;;18.20;99.90;;;;;;6192668;23;20401;-87
2023/07/10 05:26:15;;;;;;;33.58;23.92;;;18.30;99.90;;;;;;6091384;23;20038;-87
2023/07/10 05:29:00;;;;;;;34.65;22.58;;;18.30;99.90;;;;;;6190886;23;20461;-86
2023/07/10 05:31:35;;;;;;;30.13;22.42;;;18.30;99.90;;;;;;6191853;23;20023;-86
2023/07/10 05:34:00;;;;;;;35.67;23.25;;;18.20;99.90;;;;;;6091671;23;20064;-87
2023/07/10 05:36:26;;;;;;;30.67;21.20;;;18.40;99.90;;;;;;6091387;23;20018;-86
2023/07/10 05:38:52;;;;;;;28.13;19.02;;;18.30;99.90;;;;;;6100021;23;20018;-88
2023/07/10 05:41:37;;;;;;;28.50;18.65;;;18.20;99.90;;;;;;6212941;23;20033;-87
2023/07/10 05:44:02;;;;;;;25.80;18.77;;;18.30;99.90;;;;;;6195352;23;20018;-87
2023/07/10 05:46:28;;;;;;;25.50;17.77;;;18.20;99.90;;;;;;6193161;23;20427;-86
2023/07/10 05:49:06;;;;;;;27.48;18.48;;;18.30;99.90;;;;;;6191470;23;20022;-85
2023/07/10 05:51:32;;;;;;;25.73;15.93;;;18.30;99.90;;;;;;6092510;23;20019;-85
2023/07/10 05:53:59;;;;;;;20.50;12.75;;;18.30;99.90;;;;;;6191329;23;20083;-84
2023/07/10 05:57:02;;;;;;;21.10;12.95;;;18.30;99.90;;;;;;6214311;23;20020;-84
2023/07/10 05:59:28;;;;;;;21.08;12.70;;;18.20;99.90;;;;;;6215096;23;20038;-84
2023/07/10 06:01:54;;;;;;;17.52;11.50;;;18.30;99.90;;;;;;6213192;23;20500;-86
2023/07/10 06:04:19;;;;;;;17.42;10.68;;;18.30;99.90;;;;;;6214072;23;20055;-84
2023/07/10 06:06:45;;;;;;;16.77;9.32;;;18.30;99.90;;;;;;6215361;23;20063;-84
2023/07/10 06:09:43;;;;;;;15.02;9.20;;;18.30;99.90;;;;;;6215078;23;20387;-84
2023/07/10 06:12:09;;;;;;;13.63;8.38;;;18.00;99.90;;;;;;6212632;23;20013;-83
2023/07/10 06:14:46;;;;;;;16.20;7.88;;;18.30;99.90;;;;;;6214778;23;20329;-84
2023/07/10 06:17:12;;;;;;;13.10;7.18;;;18.40;99.90;;;;;;6212368;23;20012;-82
2023/07/10 06:20:00;;;;;;;14.68;6.53;;;18.40;99.90;;;;;;6214904;23;20079;-83
2023/07/10 06:22:26;;;;;;;11.85;5.85;;;18.40;99.90;;;;;;6213034;23;20016;-82
2023/07/10 06:25:04;;;;;;;17.95;5.75;;;18.40;99.90;;;;;;6211892;23;20044;-82
2023/07/10 06:27:30;;;;;;;13.05;5.60;;;18.30;99.90;;;;;;6212909;23;20017;-83
2023/07/10 06:29:56;;;;;;;10.80;5.20;;;18.40;99.90;;;;;;6214781;23;20067;-81
2023/07/10 06:32:43;;;;;;;10.10;4.70;;;18.30;99.90;;;;;;6216055;23;20071;-81
2023/07/10 06:35:12;;;;;;;11.68;4.70;;;18.30;99.90;;;;;;6214661;23;20345;-81
2023/07/10 06:37:40;;;;;;;10.95;4.70;;;18.40;99.90;;;;;;6216277;23;20112;-80
2023/07/10 06:40:12;;;;;;;11.32;4.28;;;18.60;99.90;;;;;;6216694;23;20039;-80
2023/07/10 06:42:38;;;;;;;10.48;4.40;;;18.40;99.90;;;;;;6216902;23;20023;-81
2023/07/10 06:45:05;;;;;;;10.00;4.55;;;18.40;99.90;;;;;;6213979;23;20088;-81
2023/07/10 06:47:31;;;;;;;10.30;4.40;;;18.40;99.90;;;;;;6216927;23;20101;-81
2023/07/10 06:49:58;;;;;;;11.38;4.10;;;18.40;99.90;;;;;;6216526;23;20023;-81
2023/07/10 06:52:24;;;;;;;10.35;3.95;;;18.50;99.90;;;;;;6215304;23;20023;-81
2023/07/10 06:54:52;;;;;;;9.82;4.38;;;18.60;99.90;;;;;;6110250;23;20049;-81
2023/07/10 06:57:23;;;;;;;10.27;4.18;;;18.60;99.90;;;;;;6194240;23;20025;-83
2023/07/10 06:59:52;;;;;;;11.85;4.75;;;18.70;99.90;;;;;;6193699;23;20521;-81
2023/07/10 07:02:17;;;;;;;10.57;4.22;;;18.80;99.90;;;;;;6194234;23;20050;-81
2023/07/10 07:04:43;;;;;;;9.07;4.25;;;18.90;99.90;;;;;;6193487;23;20022;-81
2023/07/10 07:07:09;;;;;;;12.05;4.70;;;19.20;99.90;;;;;;6091761;23;20018;-81
2023/07/10 07:09:34;;;;;;;10.55;4.28;;;19.10;99.90;;;;;;6093428;23;20022;-81
2023/07/10 07:12:00;;;;;;;13.07;4.05;;;19.10;99.90;;;;;;6193851;23;20398;-81
2023/07/10 07:14:26;;;;;;;12.02;3.88;;;19.30;99.90;;;;;;6193716;23;20044;-81
2023/07/10 07:16:53;;;;;;;10.23;4.00;;;19.30;99.90;;;;;;6092428;23;20018;-83
2023/07/10 07:19:19;;;;;;;10.30;3.50;;;19.40;99.90;;;;;;6193786;23;20468;-80
2023/07/10 07:21:45;;;;;;;10.57;3.58;;;19.50;99.90;;;;;;6092016;23;20022;-81
2023/07/10 07:24:11;;;;;;;10.45;3.65;;;19.60;99.90;;;;;;6193209;23;20336;-82
2023/07/10 07:26:36;;;;;;;9.65;3.25;;;19.70;99.90;;;;;;6193680;23;20026;-82
2023/07/10 07:29:05;;;;;;;8.80;3.28;;;19.80;99.90;;;;;;6131264;22;20022;-81
2023/07/10 07:31:33;;;;;;;10.48;3.25;;;19.60;99.90;;;;;;6254429;22;20022;-81
2023/07/10 07:33:58;;;;;;;12.23;3.60;;;19.60;99.90;;;;;;6149347;23;20025;-80
2023/07/10 07:36:24;;;;;;;10.30;3.40;;;19.60;99.90;;;;;;6150506;23;20025;-80
2023/07/10 07:38:59;;;;;;;9.75;3.28;;;19.70;99.90;;;;;;6252397;22;20013;-79
2023/07/10 07:41:24;;;;;;;11.32;3.67;;;19.80;99.90;;;;;;6149451;23;20430;-81
2023/07/10 07:43:50;;;;;;;12.00;3.75;;;20.00;99.90;;;;;;6150073;23;20021;-83
2023/07/10 07:46:15;;;;;;;12.55;3.33;;;20.10;99.90;;;;;;6253843;22;20024;-81
2023/07/10 07:48:41;;;;;;;9.27;2.75;;;20.20;99.90;;;;;;6252954;22;20018;-81
2023/07/10 07:51:09;;;;;;;9.55;2.88;;;20.30;99.90;;;;;;6151296;23;20064;-81
2023/07/10 07:53:38;;;;;;;10.77;3.72;;;20.50;99.90;;;;;;6149971;22;20021;-80
2023/07/10 07:56:04;;;;;;;12.02;3.42;;;20.50;99.90;;;;;;6149885;23;20040;-80
2023/07/10 07:58:31;;;;;;;10.05;3.03;;;20.50;99.90;;;;;;6254305;22;20145;-80
2023/07/10 08:00:56;;;;;;;10.15;3.20;;;20.40;99.90;;;;;;6151388;23;20017;-80
2023/07/10 08:03:22;;;;;;;11.85;3.55;;;20.50;99.90;;;;;;6253450;22;20009;-80
2023/07/10 08:05:48;;;;;;;10.88;2.90;;;20.60;99.90;;;;;;6151371;23;20088;-81
2023/07/10 08:08:13;;;;;;;9.85;3.13;;;20.50;99.90;;;;;;6151639;23;20067;-81
2023/07/10 08:10:46;;;;;;;9.82;2.95;;;20.60;99.90;;;;;;6150591;23;20017;-81
2023/07/10 08:13:12;;;;;;;9.68;2.90;;;20.70;99.90;;;;;;6151818;22;20067;-82
2023/07/10 08:15:39;;;;;;;9.75;2.72;;;20.80;99.90;;;;;;6254534;22;20047;-81
2023/07/10 08:18:08;;;;;;;9.98;2.70;;;21.00;99.90;;;;;;6253344;22;20147;-81
2023/07/10 08:20:34;;;;;;;10.32;3.20;;;20.90;99.90;;;;;;6254607;22;20022;-83
2023/07/10 08:23:02;;;;;;;9.60;2.85;;;21.00;99.90;;;;;;6151477;23;20014;-83
2023/07/10 08:25:28;;;;;;;9.25;2.40;;;21.10;99.90;;;;;;6150822;23;20021;-82
2023/07/10 08:27:53;;;;;;;11.00;2.92;;;21.20;99.90;;;;;;6151025;23;20021;-81
2023/07/10 08:30:19;;;;;;;10.82;2.60;;;21.20;99.90;;;;;;6150335;23;20047;-81
2023/07/10 08:32:45;;;;;;;9.18;2.30;;;21.30;99.90;;;;;;6254214;22;20026;-81
2023/07/10 08:35:10;;;;;;;8.48;2.25;;;21.40;99.90;;;;;;6253721;22;20341;-81
2023/07/10 08:37:37;;;;;;;9.75;2.55;;;21.60;99.90;;;;;;6150909;23;20014;-81
2023/07/10 08:40:12;;;;;;;11.15;2.50;;;21.70;99.90;;;;;;6254073;22;20017;-82
2023/07/10 08:42:39;;;;;;;8.80;2.75;;;21.70;99.90;;;;;;6253899;22;20009;-81
2023/07/10 08:45:09;;;;;;;10.18;2.90;;;21.60;99.90;;;;;;6150335;23;20018;-81
2023/07/10 08:47:40;;;;;;;8.40;2.85;;;21.60;99.90;;;;;;6254076;22;20010;-81
2023/07/10 08:50:38;;;;;;;11.10;3.20;;;21.70;99.90;;;;;;6151151;23;20450;-81
2023/07/10 08:53:16;;;;;;;8.77;2.95;;;21.80;99.90;;;;;;6246524;22;20020;-82
2023/07/10 08:55:41;;;;;;;13.45;3.65;;;22.00;99.90;;;;;;6254051;22;20030;-82
2023/07/10 08:58:18;;;;;;;11.23;3.17;;;22.20;99.90;;;;;;6253553;22;20334;-82
2023/07/10 09:00:45;;;;;;;15.32;3.78;;;22.40;99.90;;;;;;6253843;22;20468;-81
2023/07/10 09:03:39;;;;;;;10.85;3.40;;;22.60;99.90;;;;;;6250902;22;20014;-81
2023/07/10 09:06:39;;;;;;;9.18;3.20;;;22.60;99.90;;;;;;6148740;22;20013;-81
2023/07/10 09:09:30;;;;;;;10.65;3.30;;;22.70;99.90;;;;;;6252197;22;20026;-82
2023/07/10 09:12:21;;;;;;;11.00;3.22;;;22.90;99.90;;;;;;6150721;22;20024;-80
2023/07/10 09:15:19;;;;;;;9.82;3.22;;;22.90;99.90;;;;;;6252216;22;20108;-81
2023/07/10 09:21:19;;;;;;;10.52;2.92;;;23.00;99.90;;;;;;6149704;22;20407;-81
2023/07/10 09:24:11;;;;;;;8.93;3.10;;;23.10;99.90;;;;;;6150596;23;20364;-80
2023/07/10 09:26:53;;;;;;;9.27;2.78;;;23.40;99.90;;;;;;6150255;23;20017;-81
2023/07/10 09:29:49;;;;;;;11.23;3.00;;;23.50;99.90;;;;;;6250090;22;20018;-81
2023/07/10 09:32:36;;;;;;;8.23;2.60;;;23.30;99.90;;;;;;6163643;22;20033;-81
2023/07/10 09:35:16;;;;;;;9.05;2.88;;;23.50;99.90;;;;;;6149518;23;20017;-81
2023/07/10 09:37:49;;;;;;;10.18;2.78;;;23.50;99.90;;;;;;6253930;22;20070;-82
2023/07/10 09:40:40;;;;;;;8.05;2.90;;;23.50;99.90;;;;;;6253050;22;20514;-81
2023/07/10 09:43:39;;;;;;;10.82;3.10;;;23.50;99.90;;;;;;6252028;22;20017;-81
2023/07/10 09:46:53;;;;;;;11.70;2.70;;;23.60;99.90;;;;;;6250963;22;20500;-81
2023/07/10 09:49:54;;;;;;;8.95;2.90;;;23.40;99.90;;;;;;6085016;23;20013;-82
2023/07/10 09:52:40;;;;;;;10.05;3.42;;;23.70;99.90;;;;;;6253635;22;20017;-82
2023/07/10 09:55:13;;;;;;;9.52;3.03;;;23.90;99.90;;;;;;6251724;22;20228;-82
2023/07/10 09:57:48;;;;;;;10.27;2.85;;;23.70;99.90;;;;;;6150727;23;20512;-81
2023/07/10 10:00:50;;;;;;;10.98;2.90;;;23.60;99.90;;;;;;6253392;22;20028;-83
2023/07/10 10:06:32;;;;;;;11.48;2.88;;;23.80;99.90;;;;;;6149269;23;20026;-81
2023/07/10 10:09:32;;;;;;;13.50;3.30;;;23.10;99.90;;;;;;6147950;23;20018;-81
2023/07/10 10:23:42;;;;;;;10.43;2.50;;;23.90;99.90;;;;;;6067181;23;20045;-81
2023/07/10 10:31:10;;;;;;;10.45;2.78;;;24.50;99.90;;;;;;6073558;23;20033;-81
2023/07/10 10:33:59;;;;;;;11.05;3.13;;;24.50;99.90;;;;;;6186130;23;20052;-82
2023/07/10 10:36:54;;;;;;;9.70;2.80;;;24.50;99.90;;;;;;6182326;22;20020;-81
2023/07/10 10:40:16;;;;;;;12.27;2.90;;;24.80;99.90;;;;;;6253225;22;20022;-82
2023/07/10 10:43:31;;;;;;;9.55;2.60;;;24.90;99.90;;;;;;6156238;23;20017;-82
2023/07/10 10:49:57;;;;;;;10.57;3.13;;;24.20;99.90;;;;;;6185281;23;20033;-82
2023/07/10 10:57:10;;;;;;;9.00;2.80;;;24.60;99.90;;;;;;6211159;23;20062;-82
2023/07/10 11:00:16;;;;;;;11.00;2.80;;;24.60;99.90;;;;;;6186701;23;20044;-82
2023/07/10 11:03:12;;;;;;;12.18;3.15;;;24.70;99.90;;;;;;6216305;22;20017;-82
2023/07/10 11:05:54;;;;;;;11.75;3.17;;;24.80;99.90;;;;;;6253384;22;20049;-82
2023/07/10 11:11:49;;;;;;;10.70;2.95;;;24.90;99.90;;;;;;6128489;23;20025;-82
2023/07/10 11:14:36;;;;;;;9.02;2.53;;;24.90;99.90;;;;;;6246088;22;20017;-82
2023/07/10 11:17:02;;;;;;;9.93;2.97;;;24.90;99.90;;;;;;6252413;22;20021;-83
2023/07/10 11:19:43;;;;;;;10.15;2.75;;;25.40;99.90;;;;;;6151207;23;20017;-83
2023/07/10 11:22:47;;;;;;;10.05;2.80;;;25.40;99.90;;;;;;6256498;22;20096;-82
2023/07/10 11:25:38;;;;;;;10.30;2.78;;;25.60;99.90;;;;;;6255327;22;20361;-83
2023/07/10 11:28:32;;;;;;;9.90;2.45;;;25.60;99.30;;;;;;6252842;22;20017;-82
2023/07/10 11:34:05;;;;;;;9.52;2.65;;;25.60;99.90;;;;;;6149716;22;20030;-82
2023/07/10 11:42:50;;;;;;;13.10;2.70;;;25.70;98.60;;;;;;6150270;22;20454;-82
2023/07/10 11:45:16;;;;;;;10.13;2.47;;;25.70;98.90;;;;;;6151677;23;20018;-83
2023/07/10 11:48:29;;;;;;;10.02;2.60;;;25.80;99.90;;;;;;6253371;22;20044;-83
2023/07/10 11:50:55;;;;;;;12.10;2.80;;;26.00;97.50;;;;;;6253957;22;20025;-84
2023/07/10 11:56:13;;;;;;;9.60;2.28;;;26.30;99.90;;;;;;6148477;22;20072;-82
2023/07/10 11:58:51;;;;;;;11.05;2.63;;;26.00;96.30;;;;;;6254876;22;20059;-82
2023/07/10 12:01:19;;;;;;;8.55;2.55;;;26.00;96.30;;;;;;6253298;22;20110;-81
2023/07/10 12:04:04;;;;;;;10.02;2.50;;;26.30;99.30;;;;;;6151079;22;20014;-82
2023/07/10 12:06:30;;;;;;;8.32;2.20;;;26.10;96.80;;;;;;6254456;22;20526;-82
2023/07/10 12:08:58;;;;;;;9.00;2.50;;;26.10;98.20;;;;;;6150767;22;20022;-82
2023/07/10 12:11:46;;;;;;;9.52;2.50;;;26.30;96.60;;;;;;6151476;23;20092;-82
2023/07/10 12:14:29;;;;;;;11.18;2.72;;;26.10;95.50;;;;;;6254534;22;20345;-82
2023/07/10 12:17:16;;;;;;;9.10;2.30;;;26.00;95.90;;;;;;6252868;22;20024;-82
2023/07/10 12:19:53;;;;;;;;;;;;;;;;;;;;;
2023/07/10 12:22:35;;;;;;;9.88;2.80;;;26.30;96.20;;;;;;6150287;23;20370;-83
2023/07/10 12:25:20;;;;;;;9.25;2.38;;;26.50;96.80;;;;;;6151231;23;20020;-82
2023/07/10 12:27:46;;;;;;;10.02;2.50;;;26.70;95.40;;;;;;6254064;22;20018;-82
2023/07/10 12:30:29;;;;;;;9.32;2.47;;;26.40;97.90;;;;;;6150142;23;20014;-82
2023/07/10 12:33:01;;;;;;;10.40;2.30;;;26.10;94.10;;;;;;6254010;22;20021;-82
2023/07/10 12:38:48;;;;;;;8.75;2.35;;;26.20;95.00;;;;;;6156702;22;20022;-82
2023/07/10 12:42:13;;;;;;;9.30;2.25;;;26.50;94.70;;;;;;6151699;23;20025;-82
2023/07/10 12:44:46;;;;;;;7.82;2.15;;;26.40;93.60;;;;;;6176479;22;20018;-84
2023/07/10 12:51:03;;;;;;;11.45;2.25;;;27.00;94.50;;;;;;6253015;22;20053;-85
2023/07/10 12:53:47;;;;;;;8.73;2.78;;;26.60;96.30;;;;;;6254220;22;20022;-83
2023/07/10 13:00:10;;;;;;;8.45;2.10;;;26.10;94.50;;;;;;6187435;23;20052;-82
2023/07/10 13:02:57;;;;;;;8.93;2.13;;;26.00;94.40;;;;;;6246572;22;20013;-81
2023/07/10 13:05:52;;;;;;;9.73;2.17;;;26.20;94.30;;;;;;6148986;22;20017;-81
2023/07/10 13:08:21;;;;;;;9.25;2.08;;;26.50;94.10;;;;;;6253719;22;20114;-81
2023/07/10 13:10:47;;;;;;;10.10;2.10;;;26.90;94.70;;;;;;6149845;23;20016;-81
2023/07/10 13:13:21;;;;;;;6.90;1.95;;;27.00;96.10;;;;;;6252676;22;20013;-81
2023/07/10 13:16:04;;;;;;;8.73;2.20;;;27.00;92.20;;;;;;6253548;22;20462;-81
2023/07/10 13:18:42;;;;;;;9.93;2.20;;;26.80;91.70;;;;;;6253736;22;20453;-81
2023/07/10 13:21:29;;;;;;;9.23;2.20;;;27.30;93.40;;;;;;6253202;22;20018;-81
2023/07/10 13:26:55;;;;;;;9.50;2.13;;;27.30;93.20;;;;;;6203730;22;20060;-81
2023/07/10 13:29:27;;;;;;;8.75;2.20;;;27.50;94.90;;;;;;6250976;22;20014;-80
2023/07/10 13:31:53;;;;;;;9.02;2.42;;;27.70;94.10;;;;;;6250985;22;20021;-80
2023/07/10 13:34:18;;;;;;;7.78;2.15;;;27.60;95.00;;;;;;6148177;23;20017;-80
2023/07/10 13:36:44;;;;;;;9.52;2.22;;;27.10;95.30;;;;;;6148954;23;20053;-80
2023/07/10 13:39:17;;;;;;;9.07;2.03;;;27.10;95.40;;;;;;6251628;22;20018;-81
2023/07/10 13:41:44;;;;;;;11.38;2.35;;;27.10;94.60;;;;;;6250930;22;20449;-80
2023/07/10 13:44:11;;;;;;;9.00;1.90;;;27.10;94.80;;;;;;6252201;22;20096;-80
2023/07/10 13:46:37;;;;;;;7.13;1.90;;;27.00;94.20;;;;;;6149424;23;20315;-80
2023/07/10 13:49:05;;;;;;;8.88;2.28;;;27.00;93.80;;;;;;6149195;23;20017;-80
2023/07/10 13:54:07;;;;;;;8.90;2.13;;;27.00;92.40;;;;;;6121850;22;20025;-81
2023/07/10 13:56:46;;;;;;;8.63;2.20;;;27.20;94.60;;;;;;6148116;22;20061;-81
2023/07/10 13:59:17;;;;;;;6.88;1.98;;;27.20;92.20;;;;;;6250849;22;20017;-79
2023/07/10 14:01:45;;;;;;;8.43;2.10;;;27.30;90.70;;;;;;6148415;23;20018;-79
2023/07/10 14:04:12;;;;;;;6.68;1.70;;;27.30;93.40;;;;;;6250548;22;20662;-79
2023/07/10 14:06:47;;;;;;;6.80;1.70;;;27.20;93.50;;;;;;6249919;22;20044;-80
2023/07/10 14:09:17;;;;;;;6.25;1.73;;;27.10;92.60;;;;;;6147940;23;20437;-79
2023/07/10 14:11:43;;;;;;;9.00;1.90;;;27.10;91.20;;;;;;6250862;22;20512;-80
2023/07/10 14:14:19;;;;;;;7.97;2.00;;;27.20;93.00;;;;;;6148334;23;20092;-80
2023/07/10 14:16:46;;;;;;;6.82;1.90;;;27.30;90.40;;;;;;6251848;22;20028;-80
2023/07/10 14:19:19;;;;;;;8.15;2.30;;;27.30;91.70;;;;;;6148485;23;20018;-80
2023/07/10 14:21:45;;;;;;;6.35;1.90;;;27.40;90.30;;;;;;6250546;22;20052;-81
2023/07/10 14:24:11;;;;;;;5.72;1.85;;;27.60;92.80;;;;;;6144650;23;20451;-81